sensor_id;sensor_type;location;lat;lon;timestamp;P1;durP1;ratioP1;P2;durP2;ratioP2
9563;SDS011;4820;50.870;4.702;2022-08-06T00:01:50;4.85;;;1.55;;
9563;SDS011;4820;50.870;4.702;2022-08-06T00:04:16;3.53;;;1.38;;
9563;SDS011;4820;50.870;4.702;2022-08-06T00:06:42;2.63;;;1.60;;
9563;SDS011;4820;50.870;4.702;2022-08-06T00:09:08;2.53;;;1.42;;
9563;SDS011;4820;50.870;4.702;2022-08-06T00:11:37;3.15;;;1.42;;
9563;SDS011;4820;50.870;4.702;2022-08-06T00:14:03;6.18;;;1.77;;
9563;SDS011;4820;50.870;4.702;2022-08-06T00:16:29;2.83;;;1.60;;
9563;SDS011;4820;50.870;4.702;2022-08-06T00:18:55;4.65;;;1.60;;
9563;SDS011;4820;50.870;4.702;2022-08-06T00:21:22;4.18;;;1.55;;
9563;SDS011;4820;50.870;4.702;2022-08-06T00:23:48;4.82;;;2.60;;
9563;SDS011;4820;50.870;4.702;2022-08-06T00:26:14;3.10;;;1.60;;
9563;SDS011;4820;50.870;4.702;2022-08-06T00:28:40;6.95;;;1.60;;
9563;SDS011;4820;50.870;4.702;2022-08-06T00:31:05;4.57;;;1.50;;
9563;SDS011;4820;50.870;4.702;2022-08-06T00:33:32;2.42;;;1.42;;
9563;SDS011;4820;50.870;4.702;2022-08-06T00:36:00;3.40;;;1.60;;
9563;SDS011;4820;50.870;4.702;2022-08-06T00:38:27;3.80;;;1.38;;
9563;SDS011;4820;50.870;4.702;2022-08-06T00:40:53;4.22;;;1.60;;
9563;SDS011;4820;50.870;4.702;2022-08-06T00:43:19;5.15;;;1.60;;
9563;SDS011;4820;50.870;4.702;2022-08-06T00:45:45;3.15;;;1.70;;
9563;SDS011;4820;50.870;4.702;2022-08-06T00:48:12;2.17;;;1.38;;
9563;SDS011;4820;50.870;4.702;2022-08-06T00:50:38;3.80;;;1.60;;
9563;SDS011;4820;50.870;4.702;2022-08-06T00:53:07;3.67;;;1.77;;
9563;SDS011;4820;50.870;4.702;2022-08-06T00:55:34;2.13;;;1.45;;
9563;SDS011;4820;50.870;4.702;2022-08-06T00:58:00;3.30;;;1.50;;
9563;SDS011;4820;50.870;4.702;2022-08-06T01:00:26;3.00;;;1.30;;
9563;SDS011;4820;50.870;4.702;2022-08-06T01:02:51;6.95;;;1.90;;
9563;SDS011;4820;50.870;4.702;2022-08-06T01:05:17;2.60;;;1.58;;
9563;SDS011;4820;50.870;4.702;2022-08-06T01:07:43;3.17;;;1.70;;
9563;SDS011;4820;50.870;4.702;2022-08-06T01:10:09;3.00;;;1.60;;
9563;SDS011;4820;50.870;4.702;2022-08-06T01:12:35;3.92;;;1.50;;
9563;SDS011;4820;50.870;4.702;2022-08-06T01:15:02;4.63;;;1.60;;
9563;SDS011;4820;50.870;4.702;2022-08-06T01:17:34;3.70;;;1.85;;
9563;SDS011;4820;50.870;4.702;2022-08-06T01:29:00;4.40;;;1.52;;
9563;SDS011;4820;50.870;4.702;2022-08-06T01:37:05;2.15;;;1.60;;
9563;SDS011;4820;50.870;4.702;2022-08-06T01:39:48;4.20;;;1.50;;
9563;SDS011;4820;50.870;4.702;2022-08-06T01:42:17;3.50;;;1.77;;
9563;SDS011;4820;50.870;4.702;2022-08-06T01:44:46;4.45;;;1.70;;
9563;SDS011;4820;50.870;4.702;2022-08-06T01:47:17;3.40;;;1.70;;
9563;SDS011;4820;50.870;4.702;2022-08-06T01:49:46;3.88;;;1.50;;
9563;SDS011;4820;50.870;4.702;2022-08-06T01:52:16;7.30;;;1.67;;
9563;SDS011;4820;50.870;4.702;2022-08-06T01:54:46;3.65;;;1.50;;
9563;SDS011;4820;50.870;4.702;2022-08-06T01:57:15;5.90;;;1.83;;
9563;SDS011;4820;50.870;4.702;2022-08-06T01:59:43;3.83;;;1.80;;
9563;SDS011;4820;50.870;4.702;2022-08-06T02:02:14;3.03;;;1.63;;
9563;SDS011;4820;50.870;4.702;2022-08-06T02:04:45;4.47;;;1.60;;
9563;SDS011;4820;50.870;4.702;2022-08-06T02:07:14;4.20;;;1.80;;
9563;SDS011;4820;50.870;4.702;2022-08-06T02:09:43;3.42;;;1.70;;
9563;SDS011;4820;50.870;4.702;2022-08-06T02:12:11;3.80;;;1.52;;
9563;SDS011;4820;50.870;4.702;2022-08-06T02:14:45;4.13;;;1.70;;
9563;SDS011;4820;50.870;4.702;2022-08-06T02:17:18;4.78;;;1.55;;
9563;SDS011;4820;50.870;4.702;2022-08-06T02:19:46;4.13;;;1.60;;
9563;SDS011;4820;50.870;4.702;2022-08-06T02:22:14;3.20;;;1.75;;
9563;SDS011;4820;50.870;4.702;2022-08-06T02:24:42;2.72;;;1.52;;
9563;SDS011;4820;50.870;4.702;2022-08-06T02:27:10;3.38;;;1.77;;
9563;SDS011;4820;50.870;4.702;2022-08-06T02:29:38;2.92;;;1.67;;
9563;SDS011;4820;50.870;4.702;2022-08-06T02:32:06;4.28;;;1.80;;
9563;SDS011;4820;50.870;4.702;2022-08-06T02:34:33;4.80;;;1.60;;
9563;SDS011;4820;50.870;4.702;2022-08-06T02:37:02;2.85;;;1.60;;
9563;SDS011;4820;50.870;4.702;2022-08-06T02:39:38;2.25;;;1.40;;
9563;SDS011;4820;50.870;4.702;2022-08-06T02:42:11;3.47;;;1.70;;
9563;SDS011;4820;50.870;4.702;2022-08-06T02:44:51;2.75;;;1.70;;
9563;SDS011;4820;50.870;4.702;2022-08-06T02:47:48;3.63;;;1.70;;
9563;SDS011;4820;50.870;4.702;2022-08-06T02:50:31;3.38;;;1.70;;
9563;SDS011;4820;50.870;4.702;2022-08-06T02:53:01;3.95;;;1.63;;
9563;SDS011;4820;50.870;4.702;2022-08-06T02:55:30;5.10;;;1.48;;
9563;SDS011;4820;50.870;4.702;2022-08-06T02:58:08;3.70;;;1.50;;
9563;SDS011;4820;50.870;4.702;2022-08-06T03:00:39;3.42;;;1.55;;
9563;SDS011;4820;50.870;4.702;2022-08-06T03:03:07;2.83;;;1.33;;
9563;SDS011;4820;50.870;4.702;2022-08-06T03:05:35;2.33;;;1.63;;
9563;SDS011;4820;50.870;4.702;2022-08-06T03:08:03;2.28;;;1.33;;
9563;SDS011;4820;50.870;4.702;2022-08-06T03:10:31;2.67;;;1.70;;
9563;SDS011;4820;50.870;4.702;2022-08-06T03:12:58;3.15;;;1.50;;
9563;SDS011;4820;50.870;4.702;2022-08-06T03:15:26;2.30;;;1.50;;
9563;SDS011;4820;50.870;4.702;2022-08-06T03:17:54;2.70;;;1.60;;
9563;SDS011;4820;50.870;4.702;2022-08-06T03:20:25;3.58;;;1.60;;
9563;SDS011;4820;50.870;4.702;2022-08-06T03:22:52;2.40;;;1.63;;
9563;SDS011;4820;50.870;4.702;2022-08-06T03:25:23;2.42;;;1.63;;
9563;SDS011;4820;50.870;4.702;2022-08-06T03:27:51;2.47;;;1.60;;
9563;SDS011;4820;50.870;4.702;2022-08-06T03:30:18;2.60;;;1.63;;
9563;SDS011;4820;50.870;4.702;2022-08-06T03:32:45;2.60;;;1.48;;
9563;SDS011;4820;50.870;4.702;2022-08-06T03:35:12;2.35;;;1.63;;
9563;SDS011;4820;50.870;4.702;2022-08-06T03:37:40;3.30;;;1.63;;
9563;SDS011;4820;50.870;4.702;2022-08-06T03:40:07;2.60;;;1.38;;
9563;SDS011;4820;50.870;4.702;2022-08-06T03:42:34;3.20;;;1.50;;
9563;SDS011;4820;50.870;4.702;2022-08-06T03:45:01;2.97;;;1.60;;
9563;SDS011;4820;50.870;4.702;2022-08-06T03:47:29;4.22;;;1.92;;
9563;SDS011;4820;50.870;4.702;2022-08-06T03:50:11;3.45;;;1.60;;
9563;SDS011;4820;50.870;4.702;2022-08-06T03:52:39;4.22;;;1.70;;
9563;SDS011;4820;50.870;4.702;2022-08-06T03:55:12;4.65;;;1.70;;
9563;SDS011;4820;50.870;4.702;2022-08-06T03:57:46;4.65;;;1.90;;
9563;SDS011;4820;50.870;4.702;2022-08-06T04:00:17;2.45;;;1.50;;
9563;SDS011;4820;50.870;4.702;2022-08-06T04:02:49;2.85;;;1.70;;
9563;SDS011;4820;50.870;4.702;2022-08-06T04:05:21;3.10;;;1.60;;
9563;SDS011;4820;50.870;4.702;2022-08-06T04:07:49;3.72;;;1.80;;
9563;SDS011;4820;50.870;4.702;2022-08-06T04:10:18;2.88;;;2.00;;
9563;SDS011;4820;50.870;4.702;2022-08-06T04:12:45;6.45;;;2.10;;
9563;SDS011;4820;50.870;4.702;2022-08-06T04:15:12;3.30;;;1.75;;
9563;SDS011;4820;50.870;4.702;2022-08-06T04:17:39;3.90;;;2.08;;
9563;SDS011;4820;50.870;4.702;2022-08-06T04:20:07;2.30;;;1.67;;
9563;SDS011;4820;50.870;4.702;2022-08-06T04:22:38;4.30;;;1.88;;
9563;SDS011;4820;50.870;4.702;2022-08-06T04:25:04;4.20;;;2.00;;
9563;SDS011;4820;50.870;4.702;2022-08-06T04:27:31;2.60;;;1.45;;
9563;SDS011;4820;50.870;4.702;2022-08-06T04:29:58;3.95;;;1.80;;
9563;SDS011;4820;50.870;4.702;2022-08-06T04:32:25;3.20;;;1.70;;
9563;SDS011;4820;50.870;4.702;2022-08-06T04:34:52;2.47;;;1.60;;
9563;SDS011;4820;50.870;4.702;2022-08-06T04:37:20;4.32;;;2.00;;
9563;SDS011;4820;50.870;4.702;2022-08-06T04:39:46;2.58;;;1.70;;
9563;SDS011;4820;50.870;4.702;2022-08-06T04:42:12;2.42;;;1.77;;
9563;SDS011;4820;50.870;4.702;2022-08-06T04:44:38;4.10;;;1.77;;
9563;SDS011;4820;50.870;4.702;2022-08-06T04:47:05;2.40;;;1.85;;
9563;SDS011;4820;50.870;4.702;2022-08-06T04:49:31;4.05;;;1.60;;
9563;SDS011;4820;50.870;4.702;2022-08-06T04:51:57;2.88;;;1.60;;
9563;SDS011;4820;50.870;4.702;2022-08-06T04:54:22;2.80;;;1.70;;
9563;SDS011;4820;50.870;4.702;2022-08-06T04:56:48;2.65;;;1.80;;
9563;SDS011;4820;50.870;4.702;2022-08-06T04:59:14;2.80;;;1.52;;
9563;SDS011;4820;50.870;4.702;2022-08-06T05:01:40;2.30;;;1.60;;
9563;SDS011;4820;50.870;4.702;2022-08-06T05:04:05;3.30;;;1.70;;
9563;SDS011;4820;50.870;4.702;2022-08-06T05:06:34;4.50;;;1.63;;
9563;SDS011;4820;50.870;4.702;2022-08-06T05:09:09;4.13;;;1.73;;
9563;SDS011;4820;50.870;4.702;2022-08-06T05:11:42;3.40;;;1.70;;
9563;SDS011;4820;50.870;4.702;2022-08-06T05:14:17;3.70;;;1.70;;
9563;SDS011;4820;50.870;4.702;2022-08-06T05:16:49;2.83;;;1.67;;
9563;SDS011;4820;50.870;4.702;2022-08-06T05:22:10;7.90;;;2.10;;
9563;SDS011;4820;50.870;4.702;2022-08-06T05:24:40;2.60;;;1.70;;
9563;SDS011;4820;50.870;4.702;2022-08-06T05:27:06;4.25;;;1.80;;
9563;SDS011;4820;50.870;4.702;2022-08-06T05:29:34;3.67;;;1.75;;
9563;SDS011;4820;50.870;4.702;2022-08-06T05:32:00;4.72;;;2.22;;
9563;SDS011;4820;50.870;4.702;2022-08-06T05:34:26;2.38;;;1.73;;
9563;SDS011;4820;50.870;4.702;2022-08-06T05:36:52;4.18;;;1.83;;
9563;SDS011;4820;50.870;4.702;2022-08-06T05:39:18;2.85;;;1.67;;
9563;SDS011;4820;50.870;4.702;2022-08-06T05:41:45;2.47;;;1.60;;
9563;SDS011;4820;50.870;4.702;2022-08-06T05:44:11;2.10;;;1.70;;
9563;SDS011;4820;50.870;4.702;2022-08-06T05:46:39;3.70;;;1.90;;
9563;SDS011;4820;50.870;4.702;2022-08-06T05:49:10;3.45;;;1.95;;
9563;SDS011;4820;50.870;4.702;2022-08-06T05:51:43;4.65;;;1.88;;
9563;SDS011;4820;50.870;4.702;2022-08-06T05:54:20;2.50;;;1.80;;
9563;SDS011;4820;50.870;4.702;2022-08-06T05:56:54;5.68;;;1.92;;
9563;SDS011;4820;50.870;4.702;2022-08-06T05:59:28;5.90;;;2.20;;
9563;SDS011;4820;50.870;4.702;2022-08-06T06:01:56;3.28;;;1.98;;
9563;SDS011;4820;50.870;4.702;2022-08-06T06:04:23;2.85;;;2.00;;
9563;SDS011;4820;50.870;4.702;2022-08-06T06:06:50;3.85;;;1.92;;
9563;SDS011;4820;50.870;4.702;2022-08-06T06:09:16;3.25;;;1.73;;
9563;SDS011;4820;50.870;4.702;2022-08-06T06:11:43;2.20;;;1.60;;
9563;SDS011;4820;50.870;4.702;2022-08-06T06:14:16;3.33;;;2.15;;
9563;SDS011;4820;50.870;4.702;2022-08-06T06:16:54;3.35;;;1.80;;
9563;SDS011;4820;50.870;4.702;2022-08-06T06:19:33;3.05;;;1.63;;
9563;SDS011;4820;50.870;4.702;2022-08-06T06:24:48;2.33;;;1.60;;
9563;SDS011;4820;50.870;4.702;2022-08-06T06:27:34;3.13;;;1.70;;
9563;SDS011;4820;50.870;4.702;2022-08-06T06:30:04;4.32;;;1.92;;
9563;SDS011;4820;50.870;4.702;2022-08-06T06:43:51;4.72;;;2.25;;
9563;SDS011;4820;50.870;4.702;2022-08-06T06:46:30;3.28;;;2.08;;
9563;SDS011;4820;50.870;4.702;2022-08-06T06:49:11;5.68;;;2.08;;
9563;SDS011;4820;50.870;4.702;2022-08-06T06:51:43;4.32;;;1.98;;
9563;SDS011;4820;50.870;4.702;2022-08-06T06:54:16;5.05;;;2.10;;
9563;SDS011;4820;50.870;4.702;2022-08-06T06:56:47;4.70;;;2.10;;
9563;SDS011;4820;50.870;4.702;2022-08-06T06:59:29;3.75;;;2.20;;
9563;SDS011;4820;50.870;4.702;2022-08-06T07:01:58;3.20;;;2.20;;
9563;SDS011;4820;50.870;4.702;2022-08-06T07:04:26;4.97;;;2.35;;
9563;SDS011;4820;50.870;4.702;2022-08-06T07:06:55;3.45;;;2.10;;
9563;SDS011;4820;50.870;4.702;2022-08-06T07:09:24;4.20;;;2.05;;
9563;SDS011;4820;50.870;4.702;2022-08-06T07:11:51;4.13;;;2.00;;
9563;SDS011;4820;50.870;4.702;2022-08-06T07:14:20;5.13;;;2.30;;
9563;SDS011;4820;50.870;4.702;2022-08-06T07:16:48;6.53;;;2.15;;
9563;SDS011;4820;50.870;4.702;2022-08-06T07:19:16;4.78;;;2.08;;
9563;SDS011;4820;50.870;4.702;2022-08-06T07:21:45;5.50;;;2.42;;
9563;SDS011;4820;50.870;4.702;2022-08-06T07:24:12;5.93;;;2.30;;
9563;SDS011;4820;50.870;4.702;2022-08-06T07:26:43;4.57;;;1.63;;
9563;SDS011;4820;50.870;4.702;2022-08-06T07:29:11;4.90;;;2.10;;
9563;SDS011;4820;50.870;4.702;2022-08-06T07:31:37;14.35;;;2.17;;
9563;SDS011;4820;50.870;4.702;2022-08-06T07:34:05;11.68;;;2.30;;
9563;SDS011;4820;50.870;4.702;2022-08-06T07:36:36;4.70;;;1.40;;
9563;SDS011;4820;50.870;4.702;2022-08-06T07:39:11;10.25;;;2.08;;
9563;SDS011;4820;50.870;4.702;2022-08-06T07:41:42;4.45;;;1.55;;
9563;SDS011;4820;50.870;4.702;2022-08-06T07:44:11;3.97;;;1.70;;
9563;SDS011;4820;50.870;4.702;2022-08-06T07:46:39;5.82;;;1.65;;
9563;SDS011;4820;50.870;4.702;2022-08-06T07:49:08;3.78;;;1.60;;
9563;SDS011;4820;50.870;4.702;2022-08-06T07:51:41;4.60;;;1.48;;
9563;SDS011;4820;50.870;4.702;2022-08-06T07:54:09;5.85;;;1.70;;
9563;SDS011;4820;50.870;4.702;2022-08-06T07:56:37;2.97;;;1.27;;
9563;SDS011;4820;50.870;4.702;2022-08-06T07:59:04;1.95;;;1.23;;
9563;SDS011;4820;50.870;4.702;2022-08-06T08:01:31;6.65;;;1.83;;
9563;SDS011;4820;50.870;4.702;2022-08-06T08:03:58;4.18;;;1.40;;
9563;SDS011;4820;50.870;4.702;2022-08-06T08:07:00;3.58;;;1.50;;
9563;SDS011;4820;50.870;4.702;2022-08-06T08:09:36;5.95;;;1.70;;
9563;SDS011;4820;50.870;4.702;2022-08-06T08:12:04;3.60;;;1.50;;
9563;SDS011;4820;50.870;4.702;2022-08-06T08:14:31;2.78;;;1.40;;
9563;SDS011;4820;50.870;4.702;2022-08-06T08:16:58;5.00;;;1.70;;
9563;SDS011;4820;50.870;4.702;2022-08-06T08:22:02;4.90;;;1.30;;
9563;SDS011;4820;50.870;4.702;2022-08-06T08:24:31;4.97;;;1.35;;
9563;SDS011;4820;50.870;4.702;2022-08-06T08:27:02;3.85;;;1.50;;
9563;SDS011;4820;50.870;4.702;2022-08-06T08:29:38;3.85;;;1.40;;
9563;SDS011;4820;50.870;4.702;2022-08-06T08:32:05;5.60;;;1.33;;
9563;SDS011;4820;50.870;4.702;2022-08-06T08:34:32;4.75;;;1.30;;
9563;SDS011;4820;50.870;4.702;2022-08-06T08:36:58;2.20;;;1.20;;
9563;SDS011;4820;50.870;4.702;2022-08-06T08:39:24;4.85;;;1.45;;
9563;SDS011;4820;50.870;4.702;2022-08-06T08:41:54;4.50;;;1.20;;
9563;SDS011;4820;50.870;4.702;2022-08-06T08:44:25;3.60;;;1.23;;
9563;SDS011;4820;50.870;4.702;2022-08-06T08:46:55;4.05;;;1.10;;
9563;SDS011;4820;50.870;4.702;2022-08-06T08:52:16;2.85;;;1.10;;
9563;SDS011;4820;50.870;4.702;2022-08-06T08:54:48;3.38;;;1.33;;
9563;SDS011;4820;50.870;4.702;2022-08-06T08:57:16;5.35;;;1.30;;
9563;SDS011;4820;50.870;4.702;2022-08-06T08:59:44;2.05;;;1.00;;
9563;SDS011;4820;50.870;4.702;2022-08-06T09:02:11;1.92;;;1.20;;
9563;SDS011;4820;50.870;4.702;2022-08-06T09:04:39;3.00;;;1.30;;
9563;SDS011;4820;50.870;4.702;2022-08-06T09:07:05;3.97;;;1.42;;
9563;SDS011;4820;50.870;4.702;2022-08-06T09:09:32;8.02;;;1.70;;
9563;SDS011;4820;50.870;4.702;2022-08-06T09:11:59;3.03;;;1.33;;
9563;SDS011;4820;50.870;4.702;2022-08-06T09:14:26;4.07;;;1.35;;
9563;SDS011;4820;50.870;4.702;2022-08-06T09:16:52;2.58;;;1.40;;
9563;SDS011;4820;50.870;4.702;2022-08-06T09:19:18;3.45;;;1.40;;
9563;SDS011;4820;50.870;4.702;2022-08-06T09:21:44;3.20;;;1.50;;
9563;SDS011;4820;50.870;4.702;2022-08-06T09:24:09;3.28;;;1.33;;
9563;SDS011;4820;50.870;4.702;2022-08-06T09:26:36;1.98;;;1.15;;
9563;SDS011;4820;50.870;4.702;2022-08-06T09:29:06;5.60;;;1.30;;
9563;SDS011;4820;50.870;4.702;2022-08-06T09:31:46;4.47;;;1.40;;
9563;SDS011;4820;50.870;4.702;2022-08-06T09:34:13;4.82;;;1.40;;
9563;SDS011;4820;50.870;4.702;2022-08-06T09:36:43;2.83;;;1.40;;
9563;SDS011;4820;50.870;4.702;2022-08-06T09:39:11;2.85;;;1.35;;
9563;SDS011;4820;50.870;4.702;2022-08-06T09:41:48;2.80;;;1.20;;
9563;SDS011;4820;50.870;4.702;2022-08-06T09:44:16;2.30;;;1.20;;
9563;SDS011;4820;50.870;4.702;2022-08-06T09:46:45;3.78;;;1.30;;
9563;SDS011;4820;50.870;4.702;2022-08-06T09:49:15;2.83;;;1.40;;
9563;SDS011;4820;50.870;4.702;2022-08-06T09:51:42;3.50;;;1.40;;
9563;SDS011;4820;50.870;4.702;2022-08-06T09:54:09;4.50;;;1.45;;
9563;SDS011;4820;50.870;4.702;2022-08-06T09:56:42;2.33;;;1.20;;
9563;SDS011;4820;50.870;4.702;2022-08-06T09:59:12;2.65;;;1.27;;
9563;SDS011;4820;50.870;4.702;2022-08-06T10:01:42;2.47;;;1.20;;
9563;SDS011;4820;50.870;4.702;2022-08-06T10:04:14;2.97;;;1.20;;
9563;SDS011;4820;50.870;4.702;2022-08-06T10:09:25;3.55;;;1.73;;
9563;SDS011;4820;50.870;4.702;2022-08-06T10:11:52;4.53;;;1.60;;
9563;SDS011;4820;50.870;4.702;2022-08-06T10:19:46;3.55;;;1.35;;
9563;SDS011;4820;50.870;4.702;2022-08-06T10:22:29;2.42;;;1.33;;
9563;SDS011;4820;50.870;4.702;2022-08-06T10:24:55;3.70;;;1.35;;
9563;SDS011;4820;50.870;4.702;2022-08-06T10:27:32;3.30;;;1.35;;
9563;SDS011;4820;50.870;4.702;2022-08-06T10:30:04;3.05;;;1.23;;
9563;SDS011;4820;50.870;4.702;2022-08-06T10:32:33;2.50;;;1.27;;
9563;SDS011;4820;50.870;4.702;2022-08-06T10:35:02;1.92;;;1.10;;
9563;SDS011;4820;50.870;4.702;2022-08-06T10:37:31;3.47;;;1.50;;
9563;SDS011;4820;50.870;4.702;2022-08-06T10:40:04;2.70;;;1.30;;
9563;SDS011;4820;50.870;4.702;2022-08-06T10:42:32;2.00;;;1.20;;
9563;SDS011;4820;50.870;4.702;2022-08-06T10:44:58;1.60;;;1.10;;
9563;SDS011;4820;50.870;4.702;2022-08-06T10:47:27;2.17;;;1.20;;
9563;SDS011;4820;50.870;4.702;2022-08-06T10:49:53;2.22;;;1.00;;
9563;SDS011;4820;50.870;4.702;2022-08-06T10:52:19;2.38;;;1.13;;
9563;SDS011;4820;50.870;4.702;2022-08-06T10:54:46;2.85;;;1.30;;
9563;SDS011;4820;50.870;4.702;2022-08-06T10:57:11;1.33;;;1.02;;
9563;SDS011;4820;50.870;4.702;2022-08-06T10:59:42;2.45;;;1.30;;
9563;SDS011;4820;50.870;4.702;2022-08-06T11:05:07;2.17;;;1.02;;
9563;SDS011;4820;50.870;4.702;2022-08-06T11:13:40;1.98;;;1.10;;
9563;SDS011;4820;50.870;4.702;2022-08-06T11:16:24;2.15;;;1.10;;
9563;SDS011;4820;50.870;4.702;2022-08-06T11:18:58;2.05;;;1.08;;
9563;SDS011;4820;50.870;4.702;2022-08-06T11:21:47;2.65;;;1.10;;
9563;SDS011;4820;50.870;4.702;2022-08-06T11:24:15;2.88;;;1.10;;
9563;SDS011;4820;50.870;4.702;2022-08-06T11:26:42;2.58;;;1.05;;
9563;SDS011;4820;50.870;4.702;2022-08-06T11:29:10;2.67;;;1.10;;
9563;SDS011;4820;50.870;4.702;2022-08-06T11:31:41;3.13;;;1.30;;
9563;SDS011;4820;50.870;4.702;2022-08-06T11:34:13;3.05;;;1.20;;
9563;SDS011;4820;50.870;4.702;2022-08-06T11:36:47;3.28;;;1.13;;
9563;SDS011;4820;50.870;4.702;2022-08-06T11:39:14;2.38;;;1.00;;
9563;SDS011;4820;50.870;4.702;2022-08-06T11:44:17;2.00;;;1.05;;
9563;SDS011;4820;50.870;4.702;2022-08-06T11:46:47;1.35;;;0.85;;
9563;SDS011;4820;50.870;4.702;2022-08-06T11:51:46;2.00;;;0.90;;
9563;SDS011;4820;50.870;4.702;2022-08-06T12:01:57;1.55;;;1.02;;
9563;SDS011;4820;50.870;4.702;2022-08-06T12:10:00;2.60;;;1.00;;
9563;SDS011;4820;50.870;4.702;2022-08-06T12:12:38;2.22;;;1.00;;
9563;SDS011;4820;50.870;4.702;2022-08-06T12:20:33;3.13;;;1.13;;
9563;SDS011;4820;50.870;4.702;2022-08-06T12:23:10;1.20;;;0.75;;
9563;SDS011;4820;50.870;4.702;2022-08-06T12:25:38;1.05;;;0.90;;
9563;SDS011;4820;50.870;4.702;2022-08-06T12:28:06;1.75;;;0.80;;
9563;SDS011;4820;50.870;4.702;2022-08-06T12:33:10;2.25;;;1.00;;
9563;SDS011;4820;50.870;4.702;2022-08-06T12:35:57;2.88;;;0.90;;
9563;SDS011;4820;50.870;4.702;2022-08-06T12:38:26;1.63;;;1.00;;
9563;SDS011;4820;50.870;4.702;2022-08-06T12:41:02;2.28;;;1.00;;
9563;SDS011;4820;50.870;4.702;2022-08-06T12:43:30;3.08;;;0.95;;
9563;SDS011;4820;50.870;4.702;2022-08-06T12:46:02;2.10;;;0.85;;
9563;SDS011;4820;50.870;4.702;2022-08-06T12:48:32;1.00;;;0.68;;
9563;SDS011;4820;50.870;4.702;2022-08-06T12:53:32;1.73;;;0.90;;
9563;SDS011;4820;50.870;4.702;2022-08-06T12:56:02;1.95;;;1.00;;
9563;SDS011;4820;50.870;4.702;2022-08-06T12:58:35;1.73;;;1.05;;
9563;SDS011;4820;50.870;4.702;2022-08-06T13:01:03;2.20;;;1.05;;
9563;SDS011;4820;50.870;4.702;2022-08-06T13:03:31;1.80;;;0.90;;
9563;SDS011;4820;50.870;4.702;2022-08-06T13:06:00;1.45;;;0.88;;
9563;SDS011;4820;50.870;4.702;2022-08-06T13:08:28;1.17;;;0.77;;
9563;SDS011;4820;50.870;4.702;2022-08-06T13:10:55;1.00;;;0.90;;
9563;SDS011;4820;50.870;4.702;2022-08-06T13:13:25;1.95;;;1.20;;
9563;SDS011;4820;50.870;4.702;2022-08-06T13:16:06;1.55;;;1.10;;
9563;SDS011;4820;50.870;4.702;2022-08-06T13:18:40;6.30;;;1.52;;
9563;SDS011;4820;50.870;4.702;2022-08-06T13:21:18;0.82;;;0.77;;
9563;SDS011;4820;50.870;4.702;2022-08-06T13:23:47;3.53;;;1.23;;
9563;SDS011;4820;50.870;4.702;2022-08-06T13:26:23;2.20;;;1.20;;
9563;SDS011;4820;50.870;4.702;2022-08-06T13:29:03;2.03;;;1.20;;
9563;SDS011;4820;50.870;4.702;2022-08-06T13:31:31;1.00;;;0.80;;
9563;SDS011;4820;50.870;4.702;2022-08-06T13:33:58;1.63;;;1.00;;
9563;SDS011;4820;50.870;4.702;2022-08-06T13:36:31;5.93;;;1.38;;
9563;SDS011;4820;50.870;4.702;2022-08-06T13:39:15;3.17;;;1.10;;
9563;SDS011;4820;50.870;4.702;2022-08-06T13:41:42;2.20;;;1.02;;
9563;SDS011;4820;50.870;4.702;2022-08-06T13:44:25;2.15;;;1.30;;
9563;SDS011;4820;50.870;4.702;2022-08-06T13:46:52;2.38;;;1.08;;
9563;SDS011;4820;50.870;4.702;2022-08-06T13:49:19;1.88;;;1.00;;
9563;SDS011;4820;50.870;4.702;2022-08-06T13:51:45;1.52;;;0.80;;
9563;SDS011;4820;50.870;4.702;2022-08-06T13:54:11;2.90;;;1.20;;
9563;SDS011;4820;50.870;4.702;2022-08-06T13:56:37;2.08;;;1.00;;
9563;SDS011;4820;50.870;4.702;2022-08-06T13:59:02;1.98;;;1.15;;
9563;SDS011;4820;50.870;4.702;2022-08-06T14:01:29;1.30;;;1.00;;
9563;SDS011;4820;50.870;4.702;2022-08-06T14:03:55;1.77;;;1.05;;
9563;SDS011;4820;50.870;4.702;2022-08-06T14:06:20;2.15;;;1.00;;
9563;SDS011;4820;50.870;4.702;2022-08-06T14:08:47;2.65;;;1.10;;
9563;SDS011;4820;50.870;4.702;2022-08-06T14:11:13;2.10;;;0.98;;
9563;SDS011;4820;50.870;4.702;2022-08-06T14:13:38;2.38;;;1.17;;
9563;SDS011;4820;50.870;4.702;2022-08-06T14:16:04;4.30;;;1.25;;
9563;SDS011;4820;50.870;4.702;2022-08-06T14:18:30;4.45;;;1.10;;
9563;SDS011;4820;50.870;4.702;2022-08-06T14:20:55;1.42;;;1.00;;
9563;SDS011;4820;50.870;4.702;2022-08-06T14:23:21;1.60;;;1.10;;
9563;SDS011;4820;50.870;4.702;2022-08-06T14:25:47;1.63;;;1.00;;
9563;SDS011;4820;50.870;4.702;2022-08-06T14:28:13;3.08;;;1.10;;
9563;SDS011;4820;50.870;4.702;2022-08-06T14:30:40;0.85;;;0.82;;
9563;SDS011;4820;50.870;4.702;2022-08-06T14:33:07;1.38;;;0.90;;
9563;SDS011;4820;50.870;4.702;2022-08-06T14:35:34;2.45;;;1.30;;
9563;SDS011;4820;50.870;4.702;2022-08-06T14:38:02;1.55;;;0.90;;
9563;SDS011;4820;50.870;4.702;2022-08-06T14:40:28;1.50;;;0.90;;
9563;SDS011;4820;50.870;4.702;2022-08-06T14:43:13;1.67;;;1.30;;
9563;SDS011;4820;50.870;4.702;2022-08-06T14:45:59;2.05;;;1.20;;
9563;SDS011;4820;50.870;4.702;2022-08-06T14:48:24;3.53;;;1.27;;
9563;SDS011;4820;50.870;4.702;2022-08-06T14:50:50;1.35;;;1.08;;
9563;SDS011;4820;50.870;4.702;2022-08-06T14:53:16;1.55;;;1.20;;
9563;SDS011;4820;50.870;4.702;2022-08-06T14:55:43;2.30;;;1.30;;
9563;SDS011;4820;50.870;4.702;2022-08-06T14:58:08;1.55;;;1.10;;
9563;SDS011;4820;50.870;4.702;2022-08-06T15:00:34;1.35;;;1.15;;
9563;SDS011;4820;50.870;4.702;2022-08-06T15:03:00;1.75;;;1.20;;
9563;SDS011;4820;50.870;4.702;2022-08-06T15:05:26;1.30;;;1.20;;
9563;SDS011;4820;50.870;4.702;2022-08-06T15:07:52;1.77;;;1.20;;
9563;SDS011;4820;50.870;4.702;2022-08-06T15:10:19;1.30;;;1.10;;
9563;SDS011;4820;50.870;4.702;2022-08-06T15:12:45;1.45;;;0.98;;
9563;SDS011;4820;50.870;4.702;2022-08-06T15:15:10;1.25;;;1.00;;
9563;SDS011;4820;50.870;4.702;2022-08-06T15:17:36;1.67;;;1.10;;
9563;SDS011;4820;50.870;4.702;2022-08-06T15:20:02;1.40;;;1.13;;
9563;SDS011;4820;50.870;4.702;2022-08-06T15:22:30;1.23;;;1.00;;
9563;SDS011;4820;50.870;4.702;2022-08-06T15:24:55;1.60;;;1.10;;
9563;SDS011;4820;50.870;4.702;2022-08-06T15:27:21;1.73;;;0.90;;
9563;SDS011;4820;50.870;4.702;2022-08-06T15:29:47;2.15;;;1.23;;
9563;SDS011;4820;50.870;4.702;2022-08-06T15:32:12;2.03;;;1.40;;
9563;SDS011;4820;50.870;4.702;2022-08-06T15:34:38;1.55;;;1.35;;
9563;SDS011;4820;50.870;4.702;2022-08-06T15:37:05;3.05;;;1.40;;
9563;SDS011;4820;50.870;4.702;2022-08-06T15:39:32;1.33;;;1.23;;
9563;SDS011;4820;50.870;4.702;2022-08-06T15:41:59;2.58;;;1.20;;
9563;SDS011;4820;50.870;4.702;2022-08-06T15:44:26;1.60;;;1.30;;
9563;SDS011;4820;50.870;4.702;2022-08-06T15:46:52;3.53;;;1.50;;
9563;SDS011;4820;50.870;4.702;2022-08-06T15:49:18;2.25;;;1.40;;
9563;SDS011;4820;50.870;4.702;2022-08-06T15:51:44;1.92;;;1.15;;
9563;SDS011;4820;50.870;4.702;2022-08-06T15:54:10;1.20;;;1.10;;
9563;SDS011;4820;50.870;4.702;2022-08-06T15:56:36;1.40;;;1.13;;
9563;SDS011;4820;50.870;4.702;2022-08-06T15:59:02;2.35;;;1.17;;
9563;SDS011;4820;50.870;4.702;2022-08-06T16:01:28;1.33;;;1.20;;
9563;SDS011;4820;50.870;4.702;2022-08-06T16:03:53;1.23;;;1.10;;
9563;SDS011;4820;50.870;4.702;2022-08-06T16:06:19;3.17;;;1.17;;
9563;SDS011;4820;50.870;4.702;2022-08-06T16:08:45;2.30;;;1.10;;
9563;SDS011;4820;50.870;4.702;2022-08-06T16:11:12;3.30;;;1.40;;
9563;SDS011;4820;50.870;4.702;2022-08-06T16:13:38;2.58;;;1.40;;
9563;SDS011;4820;50.870;4.702;2022-08-06T16:16:04;1.95;;;1.55;;
9563;SDS011;4820;50.870;4.702;2022-08-06T16:18:30;1.55;;;1.38;;
9563;SDS011;4820;50.870;4.702;2022-08-06T16:20:58;1.50;;;1.40;;
9563;SDS011;4820;50.870;4.702;2022-08-06T16:23:25;2.85;;;1.40;;
9563;SDS011;4820;50.870;4.702;2022-08-06T16:25:50;4.20;;;1.38;;
9563;SDS011;4820;50.870;4.702;2022-08-06T16:28:17;3.95;;;1.40;;
9563;SDS011;4820;50.870;4.702;2022-08-06T16:30:44;1.80;;;1.10;;
9563;SDS011;4820;50.870;4.702;2022-08-06T16:33:10;3.85;;;1.55;;
9563;SDS011;4820;50.870;4.702;2022-08-06T16:35:36;3.65;;;1.42;;
9563;SDS011;4820;50.870;4.702;2022-08-06T16:38:02;2.00;;;1.33;;
9563;SDS011;4820;50.870;4.702;2022-08-06T16:40:28;3.88;;;1.50;;
9563;SDS011;4820;50.870;4.702;2022-08-06T16:42:54;2.75;;;1.30;;
9563;SDS011;4820;50.870;4.702;2022-08-06T16:45:20;1.38;;;1.20;;
9563;SDS011;4820;50.870;4.702;2022-08-06T16:47:48;2.72;;;1.30;;
9563;SDS011;4820;50.870;4.702;2022-08-06T16:50:16;2.88;;;1.30;;